sensor_id;sensor_type;location;lat;lon;timestamp;pressure;altitude;pressure_sealevel;temperature;humidity
10618;BME280;5356;43.526;26.534;2022-09-12T00:02:13;98561.94;;;21.36;91.96
10618;BME280;5356;43.526;26.534;2022-09-12T00:04:39;98560.47;;;21.29;92.43
10618;BME280;5356;43.526;26.534;2022-09-12T00:07:04;98572.00;;;21.35;92.62
10618;BME280;5356;43.526;26.534;2022-09-12T00:09:30;98572.09;;;21.30;93.36
10618;BME280;5356;43.526;26.534;2022-09-12T00:11:55;98575.09;;;21.28;93.79
10618;BME280;5356;43.526;26.534;2022-09-12T00:14:21;98566.72;;;21.16;94.12
10618;BME280;5356;43.526;26.534;2022-09-12T00:16:46;98581.75;;;21.22;94.17
10618;BME280;5356;43.526;26.534;2022-09-12T00:19:12;98580.75;;;21.18;94.44
10618;BME280;5356;43.526;26.534;2022-09-12T00:21:39;98584.38;;;21.14;94.49
10618;BME280;5356;43.526;26.534;2022-09-12T00:24:05;98577.47;;;21.07;95.46
10618;BME280;5356;43.526;26.534;2022-09-12T00:26:30;98578.44;;;21.12;95.11
10618;BME280;5356;43.526;26.534;2022-09-12T00:28:56;98582.44;;;21.14;95.26
10618;BME280;5356;43.526;26.534;2022-09-12T00:31:23;98591.28;;;21.06;95.78
10618;BME280;5356;43.526;26.534;2022-09-12T00:33:50;98585.59;;;21.07;95.57
10618;BME280;5356;43.526;26.534;2022-09-12T00:36:20;98582.78;;;21.13;95.79
10618;BME280;5356;43.526;26.534;2022-09-12T00:38:47;98586.00;;;21.15;95.73
10618;BME280;5356;43.526;26.534;2022-09-12T00:41:27;98583.69;;;21.08;96.57
10618;BME280;5356;43.526;26.534;2022-09-12T00:49:28;98574.47;;;21.09;97.59
10618;BME280;5356;43.526;26.534;2022-09-12T00:52:04;98567.94;;;21.10;97.52
10618;BME280;5356;43.526;26.534;2022-09-12T00:54:38;98563.00;;;21.26;97.33
10618;BME280;5356;43.526;26.534;2022-09-12T00:57:07;98571.13;;;21.26;97.02
10618;BME280;5356;43.526;26.534;2022-09-12T00:59:47;98565.72;;;21.12;97.69
10618;BME280;5356;43.526;26.534;2022-09-12T01:02:14;98562.31;;;21.06;98.48
10618;BME280;5356;43.526;26.534;2022-09-12T01:04:41;98562.63;;;21.05;99.02
10618;BME280;5356;43.526;26.534;2022-09-12T01:07:07;98563.22;;;21.02;99.37
10618;BME280;5356;43.526;26.534;2022-09-12T01:09:33;98558.50;;;21.07;99.37
10618;BME280;5356;43.526;26.534;2022-09-12T01:12:00;98564.81;;;21.03;99.57
10618;BME280;5356;43.526;26.534;2022-09-12T01:14:26;98546.00;;;20.98;99.74
10618;BME280;5356;43.526;26.534;2022-09-12T01:16:52;98549.50;;;20.98;100.00
10618;BME280;5356;43.526;26.534;2022-09-12T01:39:34;98561.22;;;20.94;100.00
10618;BME280;5356;43.526;26.534;2022-09-12T01:44:53;98566.38;;;20.81;100.00
10618;BME280;5356;43.526;26.534;2022-09-12T01:47:29;98563.94;;;20.80;100.00
10618;BME280;5356;43.526;26.534;2022-09-12T01:50:17;98549.44;;;20.62;100.00
10618;BME280;5356;43.526;26.534;2022-09-12T01:55:25;98554.94;;;20.57;100.00
10618;BME280;5356;43.526;26.534;2022-09-12T02:00:23;98566.63;;;20.25;100.00
10618;BME280;5356;43.526;26.534;2022-09-12T02:02:59;98566.81;;;20.28;100.00
10618;BME280;5356;43.526;26.534;2022-09-12T02:05:37;98550.06;;;20.26;100.00
10618;BME280;5356;43.526;26.534;2022-09-12T02:08:10;98555.88;;;20.19;100.00
10618;BME280;5356;43.526;26.534;2022-09-12T02:10:50;98544.16;;;20.10;100.00
10618;BME280;5356;43.526;26.534;2022-09-12T02:13:41;98545.63;;;20.03;100.00
10618;BME280;5356;43.526;26.534;2022-09-12T02:16:28;98549.78;;;20.14;100.00
10618;BME280;5356;43.526;26.534;2022-09-12T02:18:59;98536.97;;;20.19;100.00
10618;BME280;5356;43.526;26.534;2022-09-12T02:21:29;98529.13;;;20.18;100.00
10618;BME280;5356;43.526;26.534;2022-09-12T02:23:58;98514.53;;;20.19;100.00
10618;BME280;5356;43.526;26.534;2022-09-12T02:26:42;98513.94;;;20.22;100.00
10618;BME280;5356;43.526;26.534;2022-09-12T02:29:10;98528.03;;;20.19;100.00
10618;BME280;5356;43.526;26.534;2022-09-12T02:37:04;98535.94;;;20.02;100.00
10618;BME280;5356;43.526;26.534;2022-09-12T02:39:32;98536.06;;;20.10;100.00
10618;BME280;5356;43.526;26.534;2022-09-12T02:41:59;98521.41;;;20.11;100.00
10618;BME280;5356;43.526;26.534;2022-09-12T02:44:27;98532.94;;;20.17;100.00
10618;BME280;5356;43.526;26.534;2022-09-12T02:46:57;98538.16;;;20.13;100.00
10618;BME280;5356;43.526;26.534;2022-09-12T02:49:25;98541.34;;;20.02;100.00
10618;BME280;5356;43.526;26.534;2022-09-12T02:51:51;98520.09;;;20.09;100.00
10618;BME280;5356;43.526;26.534;2022-09-12T02:54:17;98537.34;;;20.13;100.00
10618;BME280;5356;43.526;26.534;2022-09-12T02:56:45;98547.16;;;20.09;100.00
10618;BME280;5356;43.526;26.534;2022-09-12T02:59:14;98534.75;;;20.08;100.00
10618;BME280;5356;43.526;26.534;2022-09-12T03:07:17;98542.34;;;20.06;100.00
10618;BME280;5356;43.526;26.534;2022-09-12T03:20:52;98537.69;;;19.92;100.00
10618;BME280;5356;43.526;26.534;2022-09-12T03:23:35;98538.22;;;19.94;100.00
10618;BME280;5356;43.526;26.534;2022-09-12T03:26:19;98531.41;;;19.97;100.00
10618;BME280;5356;43.526;26.534;2022-09-12T03:28:47;98542.50;;;19.95;100.00
10618;BME280;5356;43.526;26.534;2022-09-12T03:31:15;98546.88;;;20.10;100.00
10618;BME280;5356;43.526;26.534;2022-09-12T03:33:41;98538.03;;;20.05;100.00
10618;BME280;5356;43.526;26.534;2022-09-12T03:36:14;98536.31;;;19.95;100.00
10618;BME280;5356;43.526;26.534;2022-09-12T03:38:40;98547.19;;;19.90;100.00
10618;BME280;5356;43.526;26.534;2022-09-12T03:41:05;98541.72;;;19.95;100.00
10618;BME280;5356;43.526;26.534;2022-09-12T03:43:31;98538.22;;;19.94;100.00
10618;BME280;5356;43.526;26.534;2022-09-12T03:45:56;98535.31;;;19.91;100.00
10618;BME280;5356;43.526;26.534;2022-09-12T03:48:22;98538.81;;;19.91;100.00
10618;BME280;5356;43.526;26.534;2022-09-12T03:50:47;98538.59;;;19.88;100.00
10618;BME280;5356;43.526;26.534;2022-09-12T03:53:13;98542.91;;;19.89;100.00
10618;BME280;5356;43.526;26.534;2022-09-12T03:55:38;98548.50;;;19.92;100.00
10618;BME280;5356;43.526;26.534;2022-09-12T03:58:04;98544.38;;;19.81;100.00
10618;BME280;5356;43.526;26.534;2022-09-12T04:00:29;98548.09;;;19.85;100.00
10618;BME280;5356;43.526;26.534;2022-09-12T04:02:55;98543.06;;;19.79;100.00
10618;BME280;5356;43.526;26.534;2022-09-12T04:05:22;98543.88;;;19.79;100.00
10618;BME280;5356;43.526;26.534;2022-09-12T04:07:48;98548.06;;;19.71;100.00
10618;BME280;5356;43.526;26.534;2022-09-12T04:10:13;98551.72;;;19.62;100.00
10618;BME280;5356;43.526;26.534;2022-09-12T04:12:39;98547.47;;;19.56;100.00
10618;BME280;5356;43.526;26.534;2022-09-12T04:15:05;98556.94;;;19.53;100.00
10618;BME280;5356;43.526;26.534;2022-09-12T04:17:33;98560.56;;;19.48;100.00
10618;BME280;5356;43.526;26.534;2022-09-12T04:19:59;98551.94;;;19.46;100.00
10618;BME280;5356;43.526;26.534;2022-09-12T04:22:24;98550.34;;;19.45;100.00
10618;BME280;5356;43.526;26.534;2022-09-12T04:24:50;98551.41;;;19.44;100.00
10618;BME280;5356;43.526;26.534;2022-09-12T04:27:15;98560.03;;;19.46;100.00
10618;BME280;5356;43.526;26.534;2022-09-12T04:29:41;98569.47;;;19.49;100.00
10618;BME280;5356;43.526;26.534;2022-09-12T04:32:06;98567.03;;;19.47;100.00
10618;BME280;5356;43.526;26.534;2022-09-12T04:34:32;98576.31;;;19.41;100.00
10618;BME280;5356;43.526;26.534;2022-09-12T04:36:57;98573.41;;;19.38;100.00
10618;BME280;5356;43.526;26.534;2022-09-12T04:39:23;98572.53;;;19.42;100.00
10618;BME280;5356;43.526;26.534;2022-09-12T04:41:48;98571.56;;;19.33;100.00
10618;BME280;5356;43.526;26.534;2022-09-12T04:44:14;98586.69;;;19.34;100.00
10618;BME280;5356;43.526;26.534;2022-09-12T04:46:45;98593.19;;;19.33;100.00
10618;BME280;5356;43.526;26.534;2022-09-12T04:49:11;98595.81;;;19.38;100.00
10618;BME280;5356;43.526;26.534;2022-09-12T04:51:39;98598.44;;;19.43;100.00
10618;BME280;5356;43.526;26.534;2022-09-12T04:54:09;98607.06;;;19.45;100.00
10618;BME280;5356;43.526;26.534;2022-09-12T04:56:37;98598.69;;;19.28;100.00
10618;BME280;5356;43.526;26.534;2022-09-12T04:59:03;98596.84;;;19.23;100.00
10618;BME280;5356;43.526;26.534;2022-09-12T05:01:29;98598.16;;;19.26;100.00
10618;BME280;5356;43.526;26.534;2022-09-12T05:03:56;98602.81;;;19.20;100.00
10618;BME280;5356;43.526;26.534;2022-09-12T05:06:24;98611.66;;;19.26;100.00
10618;BME280;5356;43.526;26.534;2022-09-12T05:08:51;98612.50;;;19.21;100.00
10618;BME280;5356;43.526;26.534;2022-09-12T05:11:22;98622.81;;;19.19;100.00
10618;BME280;5356;43.526;26.534;2022-09-12T05:13:48;98612.38;;;19.13;100.00
10618;BME280;5356;43.526;26.534;2022-09-12T05:16:16;98614.38;;;19.02;100.00
10618;BME280;5356;43.526;26.534;2022-09-12T05:18:43;98617.59;;;19.04;100.00
10618;BME280;5356;43.526;26.534;2022-09-12T05:21:12;98612.38;;;19.13;100.00
10618;BME280;5356;43.526;26.534;2022-09-12T05:23:38;98618.81;;;19.17;100.00
10618;BME280;5356;43.526;26.534;2022-09-12T05:26:04;98616.69;;;19.14;100.00
10618;BME280;5356;43.526;26.534;2022-09-12T05:28:36;98618.81;;;19.17;100.00
10618;BME280;5356;43.526;26.534;2022-09-12T05:31:14;98619.53;;;19.22;100.00
10618;BME280;5356;43.526;26.534;2022-09-12T05:33:41;98612.50;;;19.21;100.00
10618;BME280;5356;43.526;26.534;2022-09-12T05:36:13;98612.47;;;19.26;100.00
10618;BME280;5356;43.526;26.534;2022-09-12T05:38:39;98613.25;;;19.27;100.00
10618;BME280;5356;43.526;26.534;2022-09-12T05:41:10;98623.19;;;19.32;100.00
10618;BME280;5356;43.526;26.534;2022-09-12T05:43:37;98615.63;;;19.34;100.00
10618;BME280;5356;43.526;26.534;2022-09-12T05:46:05;98615.09;;;19.32;100.00
10618;BME280;5356;43.526;26.534;2022-09-12T05:48:35;98608.81;;;19.36;100.00
10618;BME280;5356;43.526;26.534;2022-09-12T05:51:12;98616.25;;;19.44;100.00
10618;BME280;5356;43.526;26.534;2022-09-12T05:53:40;98616.69;;;19.51;100.00
10618;BME280;5356;43.526;26.534;2022-09-12T05:56:11;98622.69;;;19.48;100.00
10618;BME280;5356;43.526;26.534;2022-09-12T05:58:39;98621.00;;;19.52;100.00
10618;BME280;5356;43.526;26.534;2022-09-12T06:01:08;98614.91;;;19.66;100.00
10618;BME280;5356;43.526;26.534;2022-09-12T06:03:46;98616.50;;;19.67;100.00
10618;BME280;5356;43.526;26.534;2022-09-12T06:09:34;98612.66;;;19.73;100.00
10618;BME280;5356;43.526;26.534;2022-09-12T06:12:00;98617.88;;;19.83;100.00
10618;BME280;5356;43.526;26.534;2022-09-12T06:14:25;98617.34;;;19.81;100.00
10618;BME280;5356;43.526;26.534;2022-09-12T06:16:51;98614.97;;;19.80;100.00
10618;BME280;5356;43.526;26.534;2022-09-12T06:19:20;98616.56;;;19.81;100.00
10618;BME280;5356;43.526;26.534;2022-09-12T06:21:48;98622.41;;;19.88;100.00
10618;BME280;5356;43.526;26.534;2022-09-12T06:24:14;98629.03;;;19.95;100.00
10618;BME280;5356;43.526;26.534;2022-09-12T06:26:40;98628.88;;;20.06;100.00
10618;BME280;5356;43.526;26.534;2022-09-12T06:29:06;98621.78;;;20.10;100.00
10618;BME280;5356;43.526;26.534;2022-09-12T06:31:36;98621.19;;;20.13;100.00
10618;BME280;5356;43.526;26.534;2022-09-12T06:34:06;98626.81;;;20.16;100.00
10618;BME280;5356;43.526;26.534;2022-09-12T06:36:36;98633.53;;;20.19;100.00
10618;BME280;5356;43.526;26.534;2022-09-12T06:39:13;98623.94;;;20.40;100.00
10618;BME280;5356;43.526;26.534;2022-09-12T06:41:40;98630.03;;;20.65;100.00
10618;BME280;5356;43.526;26.534;2022-09-12T06:44:05;98641.28;;;20.72;100.00
10618;BME280;5356;43.526;26.534;2022-09-12T06:46:31;98638.88;;;20.84;100.00
10618;BME280;5356;43.526;26.534;2022-09-12T06:48:59;98627.84;;;20.95;100.00
10618;BME280;5356;43.526;26.534;2022-09-12T06:51:26;98633.53;;;21.07;100.00
10618;BME280;5356;43.526;26.534;2022-09-12T06:53:54;98636.25;;;21.07;100.00
10618;BME280;5356;43.526;26.534;2022-09-12T06:56:21;98642.56;;;21.16;100.00
10618;BME280;5356;43.526;26.534;2022-09-12T06:58:49;98636.94;;;21.26;99.55
10618;BME280;5356;43.526;26.534;2022-09-12T07:01:17;98641.13;;;21.33;98.49
10618;BME280;5356;43.526;26.534;2022-09-12T07:03:47;98647.84;;;21.35;98.89
10618;BME280;5356;43.526;26.534;2022-09-12T07:06:15;98644.44;;;21.29;97.74
10618;BME280;5356;43.526;26.534;2022-09-12T07:08:41;98648.47;;;21.46;98.17
10618;BME280;5356;43.526;26.534;2022-09-12T07:11:09;98645.00;;;21.54;97.38
10618;BME280;5356;43.526;26.534;2022-09-12T07:13:36;98641.19;;;21.69;96.60
10618;BME280;5356;43.526;26.534;2022-09-12T07:16:02;98638.66;;;21.72;94.72
10618;BME280;5356;43.526;26.534;2022-09-12T07:18:28;98644.97;;;21.68;95.08
10618;BME280;5356;43.526;26.534;2022-09-12T07:20:54;98647.06;;;21.71;95.00
10618;BME280;5356;43.526;26.534;2022-09-12T07:23:19;98644.88;;;21.73;93.83
10618;BME280;5356;43.526;26.534;2022-09-12T07:25:52;98640.53;;;21.86;92.86
10618;BME280;5356;43.526;26.534;2022-09-12T07:28:18;98641.13;;;21.83;92.75
10618;BME280;5356;43.526;26.534;2022-09-12T07:30:44;98638.03;;;21.98;92.86
10618;BME280;5356;43.526;26.534;2022-09-12T07:33:09;98647.03;;;22.07;92.63
10618;BME280;5356;43.526;26.534;2022-09-12T07:35:35;98643.50;;;22.21;91.60
10618;BME280;5356;43.526;26.534;2022-09-12T07:38:01;98635.97;;;22.17;90.67
10618;BME280;5356;43.526;26.534;2022-09-12T07:40:26;98633.94;;;22.23;91.85
10618;BME280;5356;43.526;26.534;2022-09-12T07:42:52;98637.25;;;22.42;91.29
10618;BME280;5356;43.526;26.534;2022-09-12T07:45:17;98628.81;;;22.53;90.44
10618;BME280;5356;43.526;26.534;2022-09-12T07:47:42;98629.78;;;22.48;89.66
10618;BME280;5356;43.526;26.534;2022-09-12T07:50:08;98631.72;;;22.56;89.23
10618;BME280;5356;43.526;26.534;2022-09-12T07:52:34;98625.25;;;22.75;89.57
10618;BME280;5356;43.526;26.534;2022-09-12T07:54:59;98634.09;;;22.89;88.69
10618;BME280;5356;43.526;26.534;2022-09-12T07:57:25;98631.84;;;22.91;86.86
10618;BME280;5356;43.526;26.534;2022-09-12T07:59:50;98629.31;;;22.95;86.74
10618;BME280;5356;43.526;26.534;2022-09-12T08:02:16;98627.44;;;23.04;85.35
10618;BME280;5356;43.526;26.534;2022-09-12T08:04:41;98635.59;;;23.13;84.97
10618;BME280;5356;43.526;26.534;2022-09-12T08:07:07;98629.09;;;23.31;85.28
10618;BME280;5356;43.526;26.534;2022-09-12T08:09:33;98620.47;;;23.38;84.66
10618;BME280;5356;43.526;26.534;2022-09-12T08:11:59;98626.41;;;23.40;84.18
10618;BME280;5356;43.526;26.534;2022-09-12T08:14:24;98626.88;;;23.50;84.43
10618;BME280;5356;43.526;26.534;2022-09-12T08:16:50;98627.84;;;23.54;82.29
10618;BME280;5356;43.526;26.534;2022-09-12T08:19:15;98630.75;;;23.67;81.40
10618;BME280;5356;43.526;26.534;2022-09-12T08:21:41;98619.56;;;23.86;82.02
10618;BME280;5356;43.526;26.534;2022-09-12T08:24:06;98624.03;;;23.82;81.20
10618;BME280;5356;43.526;26.534;2022-09-12T08:26:33;98621.31;;;23.82;80.76
10618;BME280;5356;43.526;26.534;2022-09-12T08:28:59;98621.97;;;23.79;76.78
10618;BME280;5356;43.526;26.534;2022-09-12T08:31:26;98617.97;;;23.85;78.93
10618;BME280;5356;43.526;26.534;2022-09-12T08:33:54;98608.66;;;23.94;76.17
10618;BME280;5356;43.526;26.534;2022-09-12T08:36:22;98612.84;;;23.83;75.96
10618;BME280;5356;43.526;26.534;2022-09-12T08:38:54;98613.47;;;23.80;77.72
10618;BME280;5356;43.526;26.534;2022-09-12T08:41:30;98610.59;;;23.94;77.40
10618;BME280;5356;43.526;26.534;2022-09-12T08:44:33;98599.22;;;24.01;75.93
10618;BME280;5356;43.526;26.534;2022-09-12T08:50:00;98593.22;;;24.33;76.02
10618;BME280;5356;43.526;26.534;2022-09-12T08:54:55;98599.00;;;24.23;72.26
10618;BME280;5356;43.526;26.534;2022-09-12T08:57:21;98594.16;;;24.37;71.78
10618;BME280;5356;43.526;26.534;2022-09-12T08:59:48;98589.53;;;24.47;70.35
10618;BME280;5356;43.526;26.534;2022-09-12T09:02:40;98582.00;;;24.44;69.32
10618;BME280;5356;43.526;26.534;2022-09-12T09:05:22;98590.59;;;24.63;70.31
10618;BME280;5356;43.526;26.534;2022-09-12T09:08:15;98573.94;;;24.56;70.01
10618;BME280;5356;43.526;26.534;2022-09-12T09:13:52;98574.13;;;24.42;68.82
10618;BME280;5356;43.526;26.534;2022-09-12T09:16:43;98567.56;;;24.34;67.59
10618;BME280;5356;43.526;26.534;2022-09-12T09:19:16;98569.06;;;24.14;66.06
10618;BME280;5356;43.526;26.534;2022-09-12T09:22:10;98565.72;;;24.26;66.98
10618;BME280;5356;43.526;26.534;2022-09-12T09:24:37;98566.59;;;24.48;66.83
10618;BME280;5356;43.526;26.534;2022-09-12T09:27:30;98571.56;;;24.37;65.66
10618;BME280;5356;43.526;26.534;2022-09-12T09:29:57;98565.19;;;24.33;67.35
10618;BME280;5356;43.526;26.534;2022-09-12T09:32:31;98558.44;;;24.48;66.60
10618;BME280;5356;43.526;26.534;2022-09-12T09:35:01;98551.78;;;24.66;64.67
10618;BME280;5356;43.526;26.534;2022-09-12T09:38:00;98554.13;;;24.76;64.84
10618;BME280;5356;43.526;26.534;2022-09-12T09:41:04;98561.41;;;24.93;64.07
10618;BME280;5356;43.526;26.534;2022-09-12T09:43:23;98550.91;;;25.04;62.35
10618;BME280;5356;43.526;26.534;2022-09-12T09:45:51;98557.22;;;24.96;62.03
10618;BME280;5356;43.526;26.534;2022-09-12T09:48:21;98556.47;;;24.86;62.67
10618;BME280;5356;43.526;26.534;2022-09-12T09:50:48;98555.34;;;24.87;63.26
10618;BME280;5356;43.526;26.534;2022-09-12T09:55:48;98555.81;;;24.90;63.79
10618;BME280;5356;43.526;26.534;2022-09-12T09:58:32;98550.50;;;24.93;63.76
10618;BME280;5356;43.526;26.534;2022-09-12T10:01:11;98552.13;;;24.94;62.75
10618;BME280;5356;43.526;26.534;2022-09-12T10:03:39;98542.69;;;25.13;61.86
10618;BME280;5356;43.526;26.534;2022-09-12T10:08:33;98546.44;;;25.29;60.33
10618;BME280;5356;43.526;26.534;2022-09-12T10:11:18;98557.88;;;25.22;60.46
10618;BME280;5356;43.526;26.534;2022-09-12T10:16:25;98551.06;;;25.49;59.95
10618;BME280;5356;43.526;26.534;2022-09-12T10:18:56;98548.25;;;25.79;59.12
10618;BME280;5356;43.526;26.534;2022-09-12T10:21:29;98547.00;;;25.76;56.64
10618;BME280;5356;43.526;26.534;2022-09-12T10:26:39;98552.78;;;25.96;54.86
10618;BME280;5356;43.526;26.534;2022-09-12T10:29:12;98545.38;;;26.09;53.92
10618;BME280;5356;43.526;26.534;2022-09-12T10:31:46;98543.03;;;26.32;54.70
10618;BME280;5356;43.526;26.534;2022-09-12T10:36:47;98550.75;;;26.05;53.67
10618;BME280;5356;43.526;26.534;2022-09-12T10:39:17;98554.75;;;25.87;53.63
10618;BME280;5356;43.526;26.534;2022-09-12T10:41:44;98548.78;;;25.72;52.97
10618;BME280;5356;43.526;26.534;2022-09-12T10:44:23;98547.25;;;25.84;52.32
10618;BME280;5356;43.526;26.534;2022-09-12T10:46:50;98543.91;;;26.11;53.19
10618;BME280;5356;43.526;26.534;2022-09-12T10:49:29;98539.63;;;26.35;52.81
10618;BME280;5356;43.526;26.534;2022-09-12T10:51:57;98539.88;;;26.54;51.70
10618;BME280;5356;43.526;26.534;2022-09-12T10:54:26;98535.09;;;26.51;52.66
10618;BME280;5356;43.526;26.534;2022-09-12T11:02:42;98540.69;;;25.85;52.85
10618;BME280;5356;43.526;26.534;2022-09-12T11:08:26;98540.25;;;25.41;53.22
10618;BME280;5356;43.526;26.534;2022-09-12T11:16:24;98539.53;;;25.02;54.76
10618;BME280;5356;43.526;26.534;2022-09-12T11:19:11;98529.78;;;25.22;53.83
10618;BME280;5356;43.526;26.534;2022-09-12T11:24:44;98532.09;;;25.53;52.41
10618;BME280;5356;43.526;26.534;2022-09-12T11:30:15;98528.66;;;25.65;52.31
10618;BME280;5356;43.526;26.534;2022-09-12T11:33:03;98520.44;;;25.86;52.34
10618;BME280;5356;43.526;26.534;2022-09-12T11:35:34;98513.78;;;26.08;52.19
10618;BME280;5356;43.526;26.534;2022-09-12T11:38:35;98513.34;;;26.30;50.69
10618;BME280;5356;43.526;26.534;2022-09-12T11:41:07;98514.19;;;26.55;50.39
10618;BME280;5356;43.526;26.534;2022-09-12T11:43:54;98510.50;;;26.76;50.38
10618;BME280;5356;43.526;26.534;2022-09-12T11:46:37;98522.34;;;26.92;49.86
10618;BME280;5356;43.526;26.534;2022-09-12T11:54:28;98517.44;;;26.85;46.09
10618;BME280;5356;43.526;26.534;2022-09-12T11:57:15;98514.38;;;26.87;46.19
10618;BME280;5356;43.526;26.534;2022-09-12T11:59:51;98504.97;;;27.00;46.16
10618;BME280;5356;43.526;26.534;2022-09-12T12:05:01;98508.03;;;27.11;47.00
10618;BME280;5356;43.526;26.534;2022-09-12T12:13:21;98516.53;;;27.34;46.42
10618;BME280;5356;43.526;26.534;2022-09-12T12:16:06;98510.03;;;27.39;46.90
10618;BME280;5356;43.526;26.534;2022-09-12T12:18:36;98515.91;;;27.13;47.17
10618;BME280;5356;43.526;26.534;2022-09-12T12:26:41;98501.72;;;26.46;46.62
10618;BME280;5356;43.526;26.534;2022-09-12T12:34:40;98511.84;;;26.94;45.24
10618;BME280;5356;43.526;26.534;2022-09-12T12:42:28;98507.38;;;27.42;44.45
10618;BME280;5356;43.526;26.534;2022-09-12T12:44:55;98514.66;;;27.22;43.67
10618;BME280;5356;43.526;26.534;2022-09-12T12:47:27;98499.72;;;27.20;43.69
10618;BME280;5356;43.526;26.534;2022-09-12T12:49:58;98501.97;;;27.30;44.49
10618;BME280;5356;43.526;26.534;2022-09-12T12:52:32;98498.84;;;27.44;43.81
10618;BME280;5356;43.526;26.534;2022-09-12T12:55:16;98495.19;;;27.68;44.01
10618;BME280;5356;43.526;26.534;2022-09-12T12:57:50;98499.63;;;27.72;43.43
10618;BME280;5356;43.526;26.534;2022-09-12T13:05:37;98495.69;;;28.33;42.94
10618;BME280;5356;43.526;26.534;2022-09-12T13:10:50;98494.47;;;28.47;42.40
10618;BME280;5356;43.526;26.534;2022-09-12T13:13:24;98484.22;;;28.59;42.43
10618;BME280;5356;43.526;26.534;2022-09-12T13:15:51;98498.13;;;28.51;42.27
10618;BME280;5356;43.526;26.534;2022-09-12T13:21:06;98500.81;;;27.87;42.89
10618;BME280;5356;43.526;26.534;2022-09-12T13:23:33;98494.41;;;27.67;43.46
10618;BME280;5356;43.526;26.534;2022-09-12T13:26:00;98492.16;;;27.85;43.29
10618;BME280;5356;43.526;26.534;2022-09-12T13:28:28;98504.50;;;27.51;43.30
10618;BME280;5356;43.526;26.534;2022-09-12T13:33:41;98490.97;;;27.02;44.02
10618;BME280;5356;43.526;26.534;2022-09-12T13:41:47;98482.97;;;26.44;45.56
10618;BME280;5356;43.526;26.534;2022-09-12T13:44:19;98482.47;;;26.30;46.41
10618;BME280;5356;43.526;26.534;2022-09-12T13:46:46;98484.19;;;26.47;46.02
10618;BME280;5356;43.526;26.534;2022-09-12T13:49:34;98485.81;;;26.60;46.27
10618;BME280;5356;43.526;26.534;2022-09-12T13:52:03;98485.50;;;27.02;46.33
10618;BME280;5356;43.526;26.534;2022-09-12T13:54:31;98483.97;;;27.29;45.47
10618;BME280;5356;43.526;26.534;2022-09-12T13:56:58;98478.38;;;27.53;45.10
10618;BME280;5356;43.526;26.534;2022-09-12T13:59:24;98475.56;;;27.50;43.95
10618;BME280;5356;43.526;26.534;2022-09-12T14:01:50;98472.88;;;27.66;43.44
10618;BME280;5356;43.526;26.534;2022-09-12T14:04:19;98478.44;;;27.69;43.65
10618;BME280;5356;43.526;26.534;2022-09-12T14:09:45;98465.34;;;27.06;44.74
10618;BME280;5356;43.526;26.534;2022-09-12T14:12:35;98473.69;;;26.85;45.03
10618;BME280;5356;43.526;26.534;2022-09-12T14:15:04;98480.69;;;26.71;45.07
10618;BME280;5356;43.526;26.534;2022-09-12T14:17:35;98475.59;;;26.97;45.36
10618;BME280;5356;43.526;26.534;2022-09-12T14:20:11;98474.81;;;27.37;45.32
10618;BME280;5356;43.526;26.534;2022-09-12T14:22:38;98484.81;;;27.45;44.85
10618;BME280;5356;43.526;26.534;2022-09-12T14:25:06;98480.28;;;27.37;45.10
10618;BME280;5356;43.526;26.534;2022-09-12T14:27:42;98486.19;;;27.39;44.40
10618;BME280;5356;43.526;26.534;2022-09-12T14:30:31;98483.72;;;27.34;43.70
10618;BME280;5356;43.526;26.534;2022-09-12T14:33:04;98489.19;;;27.34;44.06
10618;BME280;5356;43.526;26.534;2022-09-12T14:35:30;98491.97;;;27.22;44.77
10618;BME280;5356;43.526;26.534;2022-09-12T14:38:07;98493.13;;;27.21;44.92
10618;BME280;5356;43.526;26.534;2022-09-12T14:40:45;98489.72;;;26.99;44.94
10618;BME280;5356;43.526;26.534;2022-09-12T14:43:33;98487.28;;;26.70;45.49
10618;BME280;5356;43.526;26.534;2022-09-12T14:46:13;98486.41;;;26.53;45.83
10618;BME280;5356;43.526;26.534;2022-09-12T14:48:45;98480.13;;;26.28;46.18
10618;BME280;5356;43.526;26.534;2022-09-12T14:51:20;98464.53;;;26.29;46.25
10618;BME280;5356;43.526;26.534;2022-09-12T14:53:47;98477.28;;;26.25;46.73
10618;BME280;5356;43.526;26.534;2022-09-12T14:56:13;98474.75;;;26.32;46.59
10618;BME280;5356;43.526;26.534;2022-09-12T14:58:40;98469.97;;;26.29;46.38
10618;BME280;5356;43.526;26.534;2022-09-12T15:03:35;98471.69;;;26.09;46.92
10618;BME280;5356;43.526;26.534;2022-09-12T15:06:03;98468.72;;;26.02;46.27
10618;BME280;5356;43.526;26.534;2022-09-12T15:08:29;98475.19;;;25.97;46.34
10618;BME280;5356;43.526;26.534;2022-09-12T15:10:56;98477.13;;;25.96;46.10
10618;BME280;5356;43.526;26.534;2022-09-12T15:13:24;98473.63;;;25.96;46.36
10618;BME280;5356;43.526;26.534;2022-09-12T15:15:54;98477.25;;;26.00;45.93
10618;BME280;5356;43.526;26.534;2022-09-12T15:18:22;98474.06;;;25.98;46.49
10618;BME280;5356;43.526;26.534;2022-09-12T15:20:50;98473.16;;;25.94;46.63
10618;BME280;5356;43.526;26.534;2022-09-12T15:23:22;98477.69;;;25.90;46.82
10618;BME280;5356;43.526;26.534;2022-09-12T15:25:50;98480.75;;;25.88;46.79
10618;BME280;5356;43.526;26.534;2022-09-12T15:28:20;98476.72;;;25.73;46.86
10618;BME280;5356;43.526;26.534;2022-09-12T15:30:48;98478.63;;;25.73;47.34
10618;BME280;5356;43.526;26.534;2022-09-12T15:33:15;98483.06;;;25.65;47.51
10618;BME280;5356;43.526;26.534;2022-09-12T15:35:41;98473.72;;;25.66;47.51
10618;BME280;5356;43.526;26.534;2022-09-12T15:38:07;98476.47;;;25.66;47.72
10618;BME280;5356;43.526;26.534;2022-09-12T15:40:32;98467.59;;;25.69;47.92
10618;BME280;5356;43.526;26.534;2022-09-12T15:42:59;98468.28;;;25.66;48.20
10618;BME280;5356;43.526;26.534;2022-09-12T15:45:28;98475.50;;;25.50;48.29
10618;BME280;5356;43.526;26.534;2022-09-12T15:47:54;98472.84;;;25.41;48.32
10618;BME280;5356;43.526;26.534;2022-09-12T15:50:20;98475.06;;;25.48;48.60